sensor_id;sensor_type;location;lat;lon;timestamp;P1;durP1;ratioP1;P2;durP2;ratioP2
23072;SDS011;67971;51.046;3.732;2023-04-03T00:01:35;14.53;;;9.20;;
23072;SDS011;67971;51.046;3.732;2023-04-03T00:04:03;13.23;;;9.40;;
23072;SDS011;67971;51.046;3.732;2023-04-03T00:06:30;14.63;;;8.80;;
23072;SDS011;67971;51.046;3.732;2023-04-03T00:08:56;14.50;;;9.73;;
23072;SDS011;67971;51.046;3.732;2023-04-03T00:11:22;11.13;;;8.17;;
23072;SDS011;67971;51.046;3.732;2023-04-03T00:13:48;12.43;;;7.70;;
23072;SDS011;67971;51.046;3.732;2023-04-03T00:16:13;11.87;;;8.57;;
23072;SDS011;67971;51.046;3.732;2023-04-03T00:18:39;11.67;;;7.97;;
23072;SDS011;67971;51.046;3.732;2023-04-03T00:21:05;15.27;;;8.87;;
23072;SDS011;67971;51.046;3.732;2023-04-03T00:23:32;13.10;;;9.23;;
23072;SDS011;67971;51.046;3.732;2023-04-03T00:25:58;13.73;;;9.40;;
23072;SDS011;67971;51.046;3.732;2023-04-03T00:28:24;16.13;;;10.03;;
23072;SDS011;67971;51.046;3.732;2023-04-03T00:30:50;12.10;;;8.37;;
23072;SDS011;67971;51.046;3.732;2023-04-03T00:33:16;12.57;;;8.40;;
23072;SDS011;67971;51.046;3.732;2023-04-03T00:35:42;17.43;;;10.03;;
23072;SDS011;67971;51.046;3.732;2023-04-03T00:38:08;14.50;;;9.33;;
23072;SDS011;67971;51.046;3.732;2023-04-03T00:40:35;13.60;;;8.80;;
23072;SDS011;67971;51.046;3.732;2023-04-03T00:43:02;11.17;;;8.60;;
23072;SDS011;67971;51.046;3.732;2023-04-03T00:45:37;12.27;;;8.73;;
23072;SDS011;67971;51.046;3.732;2023-04-03T00:48:05;13.97;;;8.53;;
23072;SDS011;67971;51.046;3.732;2023-04-03T00:50:35;10.77;;;8.30;;
23072;SDS011;67971;51.046;3.732;2023-04-03T00:53:04;10.53;;;7.80;;
23072;SDS011;67971;51.046;3.732;2023-04-03T00:55:32;12.30;;;9.47;;
23072;SDS011;67971;51.046;3.732;2023-04-03T00:58:00;9.57;;;8.00;;
23072;SDS011;67971;51.046;3.732;2023-04-03T01:00:27;13.83;;;9.57;;
23072;SDS011;67971;51.046;3.732;2023-04-03T01:02:53;12.77;;;9.47;;
23072;SDS011;67971;51.046;3.732;2023-04-03T01:05:19;15.80;;;9.37;;
23072;SDS011;67971;51.046;3.732;2023-04-03T01:07:46;13.17;;;9.10;;
23072;SDS011;67971;51.046;3.732;2023-04-03T01:10:15;12.63;;;8.23;;
23072;SDS011;67971;51.046;3.732;2023-04-03T01:12:43;15.63;;;8.87;;
23072;SDS011;67971;51.046;3.732;2023-04-03T01:17:46;14.37;;;8.27;;
23072;SDS011;67971;51.046;3.732;2023-04-03T01:22:55;13.17;;;7.97;;
23072;SDS011;67971;51.046;3.732;2023-04-03T01:25:22;10.77;;;7.77;;
23072;SDS011;67971;51.046;3.732;2023-04-03T01:27:49;16.83;;;8.07;;
23072;SDS011;67971;51.046;3.732;2023-04-03T01:30:16;17.70;;;8.47;;
23072;SDS011;67971;51.046;3.732;2023-04-03T01:32:43;16.97;;;7.93;;
23072;SDS011;67971;51.046;3.732;2023-04-03T01:35:09;14.67;;;8.43;;
23072;SDS011;67971;51.046;3.732;2023-04-03T01:37:35;12.00;;;7.63;;
23072;SDS011;67971;51.046;3.732;2023-04-03T01:40:01;14.57;;;7.50;;
23072;SDS011;67971;51.046;3.732;2023-04-03T01:42:27;14.13;;;8.30;;
23072;SDS011;67971;51.046;3.732;2023-04-03T01:44:54;12.80;;;8.70;;
23072;SDS011;67971;51.046;3.732;2023-04-03T01:47:20;12.17;;;8.70;;
23072;SDS011;67971;51.046;3.732;2023-04-03T01:49:46;14.30;;;8.33;;
23072;SDS011;67971;51.046;3.732;2023-04-03T01:52:12;16.43;;;8.70;;
23072;SDS011;67971;51.046;3.732;2023-04-03T01:54:38;11.23;;;8.23;;
23072;SDS011;67971;51.046;3.732;2023-04-03T01:57:03;14.23;;;7.50;;
23072;SDS011;67971;51.046;3.732;2023-04-03T01:59:29;15.03;;;9.07;;
23072;SDS011;67971;51.046;3.732;2023-04-03T02:01:55;15.07;;;8.37;;
23072;SDS011;67971;51.046;3.732;2023-04-03T02:04:21;12.40;;;8.53;;
23072;SDS011;67971;51.046;3.732;2023-04-03T02:06:47;12.60;;;8.20;;
23072;SDS011;67971;51.046;3.732;2023-04-03T02:09:12;13.40;;;8.07;;
23072;SDS011;67971;51.046;3.732;2023-04-03T02:11:38;13.33;;;8.50;;
23072;SDS011;67971;51.046;3.732;2023-04-03T02:14:04;14.07;;;9.13;;
23072;SDS011;67971;51.046;3.732;2023-04-03T02:16:30;16.97;;;9.37;;
23072;SDS011;67971;51.046;3.732;2023-04-03T02:18:56;15.47;;;8.97;;
23072;SDS011;67971;51.046;3.732;2023-04-03T02:21:21;12.07;;;8.47;;
23072;SDS011;67971;51.046;3.732;2023-04-03T02:23:47;13.10;;;8.50;;
23072;SDS011;67971;51.046;3.732;2023-04-03T02:26:14;12.90;;;9.07;;
23072;SDS011;67971;51.046;3.732;2023-04-03T02:28:40;13.87;;;8.53;;
23072;SDS011;67971;51.046;3.732;2023-04-03T02:31:06;17.00;;;9.27;;
23072;SDS011;67971;51.046;3.732;2023-04-03T02:33:33;14.77;;;9.07;;
23072;SDS011;67971;51.046;3.732;2023-04-03T02:36:02;13.70;;;8.87;;
23072;SDS011;67971;51.046;3.732;2023-04-03T02:38:29;13.47;;;9.33;;
23072;SDS011;67971;51.046;3.732;2023-04-03T02:41:02;15.30;;;9.17;;
23072;SDS011;67971;51.046;3.732;2023-04-03T02:43:29;16.83;;;9.00;;
23072;SDS011;67971;51.046;3.732;2023-04-03T02:45:55;13.63;;;9.63;;
23072;SDS011;67971;51.046;3.732;2023-04-03T02:48:20;14.67;;;8.77;;
23072;SDS011;67971;51.046;3.732;2023-04-03T02:50:47;14.90;;;9.53;;
23072;SDS011;67971;51.046;3.732;2023-04-03T02:53:12;13.40;;;8.93;;
23072;SDS011;67971;51.046;3.732;2023-04-03T02:55:38;14.80;;;8.90;;
23072;SDS011;67971;51.046;3.732;2023-04-03T02:58:03;12.57;;;9.13;;
23072;SDS011;67971;51.046;3.732;2023-04-03T03:00:29;17.47;;;9.07;;
23072;SDS011;67971;51.046;3.732;2023-04-03T03:02:55;13.13;;;8.60;;
23072;SDS011;67971;51.046;3.732;2023-04-03T03:05:21;14.57;;;8.73;;
23072;SDS011;67971;51.046;3.732;2023-04-03T03:07:46;17.13;;;9.17;;
23072;SDS011;67971;51.046;3.732;2023-04-03T03:10:12;17.33;;;9.00;;
23072;SDS011;67971;51.046;3.732;2023-04-03T03:12:38;17.87;;;9.47;;
23072;SDS011;67971;51.046;3.732;2023-04-03T03:15:05;14.97;;;9.00;;
23072;SDS011;67971;51.046;3.732;2023-04-03T03:17:32;13.10;;;8.23;;
23072;SDS011;67971;51.046;3.732;2023-04-03T03:19:58;15.50;;;8.30;;
23072;SDS011;67971;51.046;3.732;2023-04-03T03:22:23;15.83;;;8.43;;
23072;SDS011;67971;51.046;3.732;2023-04-03T03:24:49;11.73;;;7.87;;
23072;SDS011;67971;51.046;3.732;2023-04-03T03:27:15;14.50;;;8.53;;
23072;SDS011;67971;51.046;3.732;2023-04-03T03:29:41;12.63;;;8.30;;
23072;SDS011;67971;51.046;3.732;2023-04-03T03:32:07;12.57;;;8.30;;
23072;SDS011;67971;51.046;3.732;2023-04-03T03:34:33;14.23;;;8.33;;
23072;SDS011;67971;51.046;3.732;2023-04-03T03:36:58;16.00;;;8.80;;
23072;SDS011;67971;51.046;3.732;2023-04-03T03:39:24;17.40;;;8.30;;
23072;SDS011;67971;51.046;3.732;2023-04-03T03:41:51;12.47;;;8.57;;
23072;SDS011;67971;51.046;3.732;2023-04-03T03:44:18;13.33;;;7.97;;
23072;SDS011;67971;51.046;3.732;2023-04-03T03:46:44;15.60;;;9.03;;
23072;SDS011;67971;51.046;3.732;2023-04-03T03:49:10;13.20;;;8.60;;
23072;SDS011;67971;51.046;3.732;2023-04-03T03:51:38;16.60;;;9.27;;
23072;SDS011;67971;51.046;3.732;2023-04-03T03:54:05;14.63;;;8.73;;
23072;SDS011;67971;51.046;3.732;2023-04-03T03:56:31;12.93;;;9.07;;
23072;SDS011;67971;51.046;3.732;2023-04-03T03:58:57;19.43;;;9.43;;
23072;SDS011;67971;51.046;3.732;2023-04-03T04:01:23;14.30;;;9.30;;
23072;SDS011;67971;51.046;3.732;2023-04-03T04:03:49;15.07;;;8.90;;
23072;SDS011;67971;51.046;3.732;2023-04-03T04:06:15;14.63;;;9.23;;
23072;SDS011;67971;51.046;3.732;2023-04-03T04:08:41;14.73;;;9.37;;
23072;SDS011;67971;51.046;3.732;2023-04-03T04:11:08;13.80;;;9.23;;
23072;SDS011;67971;51.046;3.732;2023-04-03T04:13:34;12.53;;;9.10;;
23072;SDS011;67971;51.046;3.732;2023-04-03T04:16:00;12.70;;;10.00;;
23072;SDS011;67971;51.046;3.732;2023-04-03T04:18:25;16.10;;;9.70;;
23072;SDS011;67971;51.046;3.732;2023-04-03T04:20:51;14.93;;;9.67;;
23072;SDS011;67971;51.046;3.732;2023-04-03T04:23:17;14.57;;;9.47;;
23072;SDS011;67971;51.046;3.732;2023-04-03T04:25:47;15.90;;;9.73;;
23072;SDS011;67971;51.046;3.732;2023-04-03T04:28:13;15.00;;;10.03;;
23072;SDS011;67971;51.046;3.732;2023-04-03T04:30:39;15.23;;;8.80;;
23072;SDS011;67971;51.046;3.732;2023-04-03T04:33:05;15.67;;;10.00;;
23072;SDS011;67971;51.046;3.732;2023-04-03T04:35:32;15.20;;;10.17;;
23072;SDS011;67971;51.046;3.732;2023-04-03T04:37:58;20.53;;;9.70;;
23072;SDS011;67971;51.046;3.732;2023-04-03T04:40:23;17.33;;;9.77;;
23072;SDS011;67971;51.046;3.732;2023-04-03T04:42:49;14.93;;;10.43;;
23072;SDS011;67971;51.046;3.732;2023-04-03T04:45:15;14.80;;;9.77;;
23072;SDS011;67971;51.046;3.732;2023-04-03T04:47:41;15.50;;;9.63;;
23072;SDS011;67971;51.046;3.732;2023-04-03T04:50:07;13.93;;;10.20;;
23072;SDS011;67971;51.046;3.732;2023-04-03T04:52:33;17.93;;;10.97;;
23072;SDS011;67971;51.046;3.732;2023-04-03T04:54:59;21.03;;;11.43;;
23072;SDS011;67971;51.046;3.732;2023-04-03T04:57:25;18.43;;;10.90;;
23072;SDS011;67971;51.046;3.732;2023-04-03T04:59:51;13.67;;;10.73;;
23072;SDS011;67971;51.046;3.732;2023-04-03T05:02:16;19.90;;;11.20;;
23072;SDS011;67971;51.046;3.732;2023-04-03T05:04:42;19.00;;;10.47;;
23072;SDS011;67971;51.046;3.732;2023-04-03T05:07:09;17.27;;;10.77;;
23072;SDS011;67971;51.046;3.732;2023-04-03T05:09:35;15.93;;;10.70;;
23072;SDS011;67971;51.046;3.732;2023-04-03T05:12:00;22.63;;;11.53;;
23072;SDS011;67971;51.046;3.732;2023-04-03T05:14:27;19.20;;;11.50;;
23072;SDS011;67971;51.046;3.732;2023-04-03T05:16:53;20.67;;;11.60;;
23072;SDS011;67971;51.046;3.732;2023-04-03T05:19:22;21.60;;;12.00;;
23072;SDS011;67971;51.046;3.732;2023-04-03T05:21:48;19.07;;;11.30;;
23072;SDS011;67971;51.046;3.732;2023-04-03T05:24:14;28.57;;;13.70;;
23072;SDS011;67971;51.046;3.732;2023-04-03T05:26:41;18.00;;;12.37;;
23072;SDS011;67971;51.046;3.732;2023-04-03T05:29:07;17.33;;;10.93;;
23072;SDS011;67971;51.046;3.732;2023-04-03T05:31:33;18.33;;;12.03;;
23072;SDS011;67971;51.046;3.732;2023-04-03T05:33:59;24.60;;;11.57;;
23072;SDS011;67971;51.046;3.732;2023-04-03T05:36:25;25.53;;;11.90;;
23072;SDS011;67971;51.046;3.732;2023-04-03T05:38:50;17.10;;;11.77;;
23072;SDS011;67971;51.046;3.732;2023-04-03T05:41:17;20.73;;;12.10;;
23072;SDS011;67971;51.046;3.732;2023-04-03T05:43:43;22.03;;;11.53;;
23072;SDS011;67971;51.046;3.732;2023-04-03T05:46:10;21.67;;;12.40;;
23072;SDS011;67971;51.046;3.732;2023-04-03T05:48:37;18.20;;;12.23;;
23072;SDS011;67971;51.046;3.732;2023-04-03T05:51:03;18.77;;;12.67;;
23072;SDS011;67971;51.046;3.732;2023-04-03T05:53:29;26.63;;;12.60;;
23072;SDS011;67971;51.046;3.732;2023-04-03T05:55:58;18.30;;;12.30;;
23072;SDS011;67971;51.046;3.732;2023-04-03T05:58:23;16.60;;;12.10;;
23072;SDS011;67971;51.046;3.732;2023-04-03T06:00:49;24.33;;;13.60;;
23072;SDS011;67971;51.046;3.732;2023-04-03T06:03:15;21.33;;;12.37;;
23072;SDS011;67971;51.046;3.732;2023-04-03T06:05:41;27.37;;;12.90;;
23072;SDS011;67971;51.046;3.732;2023-04-03T06:08:08;21.97;;;12.07;;
23072;SDS011;67971;51.046;3.732;2023-04-03T06:10:34;19.50;;;12.97;;
23072;SDS011;67971;51.046;3.732;2023-04-03T06:13:01;26.80;;;13.10;;
23072;SDS011;67971;51.046;3.732;2023-04-03T06:15:27;22.23;;;12.70;;
23072;SDS011;67971;51.046;3.732;2023-04-03T06:17:53;19.97;;;13.03;;
23072;SDS011;67971;51.046;3.732;2023-04-03T06:20:19;23.60;;;13.03;;
23072;SDS011;67971;51.046;3.732;2023-04-03T06:22:44;23.07;;;12.17;;
23072;SDS011;67971;51.046;3.732;2023-04-03T06:25:11;22.27;;;11.60;;
23072;SDS011;67971;51.046;3.732;2023-04-03T06:27:37;23.67;;;12.70;;
23072;SDS011;67971;51.046;3.732;2023-04-03T06:30:04;17.13;;;11.57;;
23072;SDS011;67971;51.046;3.732;2023-04-03T06:32:31;18.17;;;11.67;;
23072;SDS011;67971;51.046;3.732;2023-04-03T06:34:57;21.77;;;12.43;;
23072;SDS011;67971;51.046;3.732;2023-04-03T06:37:23;22.40;;;12.13;;
23072;SDS011;67971;51.046;3.732;2023-04-03T06:39:54;16.63;;;11.53;;
23072;SDS011;67971;51.046;3.732;2023-04-03T06:42:20;17.17;;;11.23;;
23072;SDS011;67971;51.046;3.732;2023-04-03T06:44:46;19.00;;;12.37;;
23072;SDS011;67971;51.046;3.732;2023-04-03T06:47:13;14.83;;;9.60;;
23072;SDS011;67971;51.046;3.732;2023-04-03T06:49:39;21.77;;;9.20;;
23072;SDS011;67971;51.046;3.732;2023-04-03T06:52:06;11.13;;;8.20;;
23072;SDS011;67971;51.046;3.732;2023-04-03T06:54:32;12.60;;;7.17;;
23072;SDS011;67971;51.046;3.732;2023-04-03T06:56:58;10.93;;;6.50;;
23072;SDS011;67971;51.046;3.732;2023-04-03T06:59:23;18.03;;;6.67;;
23072;SDS011;67971;51.046;3.732;2023-04-03T07:01:49;17.93;;;6.57;;
23072;SDS011;67971;51.046;3.732;2023-04-03T07:04:16;8.63;;;6.00;;
23072;SDS011;67971;51.046;3.732;2023-04-03T07:06:41;11.67;;;6.43;;
23072;SDS011;67971;51.046;3.732;2023-04-03T07:09:08;10.47;;;5.80;;
23072;SDS011;67971;51.046;3.732;2023-04-03T07:11:35;9.07;;;6.00;;
23072;SDS011;67971;51.046;3.732;2023-04-03T07:14:01;8.97;;;5.63;;
23072;SDS011;67971;51.046;3.732;2023-04-03T07:16:27;12.60;;;6.72;;
23072;SDS011;67971;51.046;3.732;2023-04-03T07:18:55;8.43;;;5.82;;
23072;SDS011;67971;51.046;3.732;2023-04-03T07:21:22;9.07;;;6.35;;
23072;SDS011;67971;51.046;3.732;2023-04-03T07:23:48;10.55;;;5.90;;
23072;SDS011;67971;51.046;3.732;2023-04-03T07:26:14;14.05;;;7.00;;
23072;SDS011;67971;51.046;3.732;2023-04-03T07:28:40;9.45;;;6.15;;
23072;SDS011;67971;51.046;3.732;2023-04-03T07:31:07;10.57;;;6.13;;
23072;SDS011;67971;51.046;3.732;2023-04-03T07:33:38;12.27;;;5.78;;
23072;SDS011;67971;51.046;3.732;2023-04-03T07:36:04;7.75;;;5.88;;
23072;SDS011;67971;51.046;3.732;2023-04-03T07:38:32;9.15;;;6.57;;
23072;SDS011;67971;51.046;3.732;2023-04-03T07:40:58;8.52;;;6.22;;
23072;SDS011;67971;51.046;3.732;2023-04-03T07:43:24;7.18;;;5.75;;
23072;SDS011;67971;51.046;3.732;2023-04-03T07:45:51;10.73;;;5.22;;
23072;SDS011;67971;51.046;3.732;2023-04-03T07:48:19;9.52;;;6.03;;
23072;SDS011;67971;51.046;3.732;2023-04-03T07:50:49;11.50;;;6.03;;
23072;SDS011;67971;51.046;3.732;2023-04-03T07:53:15;11.48;;;6.13;;
23072;SDS011;67971;51.046;3.732;2023-04-03T07:55:41;13.73;;;6.63;;
23072;SDS011;67971;51.046;3.732;2023-04-03T07:58:10;9.27;;;5.70;;
23072;SDS011;67971;51.046;3.732;2023-04-03T08:00:38;10.50;;;6.15;;
23072;SDS011;67971;51.046;3.732;2023-04-03T08:03:04;8.60;;;6.72;;
23072;SDS011;67971;51.046;3.732;2023-04-03T08:05:31;15.10;;;7.20;;
23072;SDS011;67971;51.046;3.732;2023-04-03T08:08:00;10.80;;;7.00;;
23072;SDS011;67971;51.046;3.732;2023-04-03T08:10:26;10.55;;;6.05;;
23072;SDS011;67971;51.046;3.732;2023-04-03T08:12:52;11.00;;;6.13;;
23072;SDS011;67971;51.046;3.732;2023-04-03T08:15:18;9.55;;;6.20;;
23072;SDS011;67971;51.046;3.732;2023-04-03T08:17:43;12.23;;;6.50;;
23072;SDS011;67971;51.046;3.732;2023-04-03T08:20:10;9.55;;;6.07;;
23072;SDS011;67971;51.046;3.732;2023-04-03T08:22:36;10.48;;;5.65;;
23072;SDS011;67971;51.046;3.732;2023-04-03T08:25:02;9.55;;;5.70;;
23072;SDS011;67971;51.046;3.732;2023-04-03T08:27:28;7.60;;;5.43;;
23072;SDS011;67971;51.046;3.732;2023-04-03T08:29:54;7.72;;;5.40;;
23072;SDS011;67971;51.046;3.732;2023-04-03T08:32:21;10.25;;;6.00;;
23072;SDS011;67971;51.046;3.732;2023-04-03T08:34:48;9.52;;;5.43;;
23072;SDS011;67971;51.046;3.732;2023-04-03T08:37:13;12.57;;;6.68;;
23072;SDS011;67971;51.046;3.732;2023-04-03T08:39:41;12.38;;;6.03;;
23072;SDS011;67971;51.046;3.732;2023-04-03T08:42:13;9.25;;;5.45;;
23072;SDS011;67971;51.046;3.732;2023-04-03T08:45:00;8.93;;;4.97;;
23072;SDS011;67971;51.046;3.732;2023-04-03T08:50:38;6.82;;;4.50;;
23072;SDS011;67971;51.046;3.732;2023-04-03T08:53:02;8.75;;;4.82;;
23072;SDS011;67971;51.046;3.732;2023-04-03T08:55:33;10.82;;;4.70;;
23072;SDS011;67971;51.046;3.732;2023-04-03T08:58:05;6.78;;;4.47;;
23072;SDS011;67971;51.046;3.732;2023-04-03T09:00:41;8.07;;;3.88;;
23072;SDS011;67971;51.046;3.732;2023-04-03T09:03:11;8.15;;;3.70;;
23072;SDS011;67971;51.046;3.732;2023-04-03T09:05:41;9.55;;;4.10;;
23072;SDS011;67971;51.046;3.732;2023-04-03T09:10:48;10.73;;;3.88;;
23072;SDS011;67971;51.046;3.732;2023-04-03T09:18:53;7.15;;;3.65;;
23072;SDS011;67971;51.046;3.732;2023-04-03T09:21:37;7.10;;;3.22;;
23072;SDS011;67971;51.046;3.732;2023-04-03T09:24:04;5.53;;;3.53;;
23072;SDS011;67971;51.046;3.732;2023-04-03T09:26:43;7.70;;;2.90;;
23072;SDS011;67971;51.046;3.732;2023-04-03T09:29:21;4.35;;;2.50;;
23072;SDS011;67971;51.046;3.732;2023-04-03T09:31:49;5.70;;;2.70;;
23072;SDS011;67971;51.046;3.732;2023-04-03T09:36:50;7.10;;;3.22;;
23072;SDS011;67971;51.046;3.732;2023-04-03T09:39:24;5.32;;;2.67;;
23072;SDS011;67971;51.046;3.732;2023-04-03T09:42:02;5.88;;;2.72;;
23072;SDS011;67971;51.046;3.732;2023-04-03T09:44:34;5.97;;;2.92;;
23072;SDS011;67971;51.046;3.732;2023-04-03T09:47:18;6.15;;;3.03;;
23072;SDS011;67971;51.046;3.732;2023-04-03T09:49:49;9.68;;;2.97;;
23072;SDS011;67971;51.046;3.732;2023-04-03T09:52:19;10.70;;;3.33;;
23072;SDS011;67971;51.046;3.732;2023-04-03T09:54:47;4.38;;;2.72;;
23072;SDS011;67971;51.046;3.732;2023-04-03T09:57:13;8.07;;;3.53;;
23072;SDS011;67971;51.046;3.732;2023-04-03T09:59:58;6.30;;;2.60;;
23072;SDS011;67971;51.046;3.732;2023-04-03T10:02:43;9.00;;;3.40;;
23072;SDS011;67971;51.046;3.732;2023-04-03T10:05:28;5.38;;;2.95;;
23072;SDS011;67971;51.046;3.732;2023-04-03T10:08:09;4.00;;;2.70;;
23072;SDS011;67971;51.046;3.732;2023-04-03T10:10:39;5.03;;;3.28;;
23072;SDS011;67971;51.046;3.732;2023-04-03T10:13:17;4.63;;;3.00;;
23072;SDS011;67971;51.046;3.732;2023-04-03T10:15:56;6.32;;;3.25;;
23072;SDS011;67971;51.046;3.732;2023-04-03T10:24:03;6.85;;;2.90;;
23072;SDS011;67971;51.046;3.732;2023-04-03T10:32:11;7.20;;;2.80;;
23072;SDS011;67971;51.046;3.732;2023-04-03T10:34:53;4.57;;;2.60;;
23072;SDS011;67971;51.046;3.732;2023-04-03T10:37:43;4.68;;;2.80;;
23072;SDS011;67971;51.046;3.732;2023-04-03T10:48:22;6.15;;;2.75;;
23072;SDS011;67971;51.046;3.732;2023-04-03T10:54:24;6.72;;;2.13;;
23072;SDS011;67971;51.046;3.732;2023-04-03T10:57:17;5.70;;;2.10;;
23072;SDS011;67971;51.046;3.732;2023-04-03T11:05:04;4.57;;;1.98;;
23072;SDS011;67971;51.046;3.732;2023-04-03T11:07:39;2.95;;;1.80;;
23072;SDS011;67971;51.046;3.732;2023-04-03T11:10:14;6.80;;;1.92;;
23072;SDS011;67971;51.046;3.732;2023-04-03T11:12:58;8.95;;;2.50;;
23072;SDS011;67971;51.046;3.732;2023-04-03T11:15:32;4.47;;;2.63;;
23072;SDS011;67971;51.046;3.732;2023-04-03T11:18:00;7.10;;;2.20;;
23072;SDS011;67971;51.046;3.732;2023-04-03T11:20:44;5.28;;;2.25;;
23072;SDS011;67971;51.046;3.732;2023-04-03T11:23:23;3.80;;;1.73;;
23072;SDS011;67971;51.046;3.732;2023-04-03T11:25:53;2.95;;;1.95;;
23072;SDS011;67971;51.046;3.732;2023-04-03T11:28:24;3.17;;;1.92;;
23072;SDS011;67971;51.046;3.732;2023-04-03T11:36:28;3.60;;;1.90;;
23072;SDS011;67971;51.046;3.732;2023-04-03T11:38:59;6.22;;;1.85;;
23072;SDS011;67971;51.046;3.732;2023-04-03T11:41:32;6.15;;;2.15;;
23072;SDS011;67971;51.046;3.732;2023-04-03T11:44:03;6.03;;;2.05;;
23072;SDS011;67971;51.046;3.732;2023-04-03T11:53:03;6.03;;;1.80;;
23072;SDS011;67971;51.046;3.732;2023-04-03T12:11:42;5.05;;;2.40;;
23072;SDS011;67971;51.046;3.732;2023-04-03T12:19:00;5.00;;;2.30;;
23072;SDS011;67971;51.046;3.732;2023-04-03T12:29:25;4.55;;;2.22;;
23072;SDS011;67971;51.046;3.732;2023-04-03T12:34:50;3.55;;;2.15;;
23072;SDS011;67971;51.046;3.732;2023-04-03T12:40:31;3.17;;;2.00;;
23072;SDS011;67971;51.046;3.732;2023-04-03T12:48:12;4.97;;;2.47;;
23072;SDS011;67971;51.046;3.732;2023-04-03T12:50:41;4.90;;;2.10;;
23072;SDS011;67971;51.046;3.732;2023-04-03T12:53:16;3.75;;;2.15;;
23072;SDS011;67971;51.046;3.732;2023-04-03T12:55:57;3.53;;;1.92;;
23072;SDS011;67971;51.046;3.732;2023-04-03T12:58:43;2.25;;;1.63;;
23072;SDS011;67971;51.046;3.732;2023-04-03T13:01:12;4.15;;;1.60;;
23072;SDS011;67971;51.046;3.732;2023-04-03T13:03:45;3.33;;;1.67;;
23072;SDS011;67971;51.046;3.732;2023-04-03T13:06:21;3.95;;;2.00;;
23072;SDS011;67971;51.046;3.732;2023-04-03T13:08:52;7.43;;;1.90;;
23072;SDS011;67971;51.046;3.732;2023-04-03T13:11:22;8.07;;;2.22;;
23072;SDS011;67971;51.046;3.732;2023-04-03T13:14:00;2.92;;;1.88;;
23072;SDS011;67971;51.046;3.732;2023-04-03T13:16:31;4.53;;;1.73;;
23072;SDS011;67971;51.046;3.732;2023-04-03T13:18:58;4.75;;;2.13;;
23072;SDS011;67971;51.046;3.732;2023-04-03T13:21:25;3.80;;;1.77;;
23072;SDS011;67971;51.046;3.732;2023-04-03T13:23:59;5.55;;;2.13;;
23072;SDS011;67971;51.046;3.732;2023-04-03T13:26:29;7.38;;;2.00;;
23072;SDS011;67971;51.046;3.732;2023-04-03T13:28:59;6.13;;;2.05;;
23072;SDS011;67971;51.046;3.732;2023-04-03T13:31:29;5.90;;;1.60;;
23072;SDS011;67971;51.046;3.732;2023-04-03T13:34:07;9.05;;;2.13;;
23072;SDS011;67971;51.046;3.732;2023-04-03T13:39:06;5.53;;;1.48;;
23072;SDS011;67971;51.046;3.732;2023-04-03T13:41:48;3.92;;;2.15;;
23072;SDS011;67971;51.046;3.732;2023-04-03T13:46:50;3.13;;;1.77;;
23072;SDS011;67971;51.046;3.732;2023-04-03T13:49:34;3.15;;;1.50;;
23072;SDS011;67971;51.046;3.732;2023-04-03T13:52:03;4.32;;;1.73;;
23072;SDS011;67971;51.046;3.732;2023-04-03T13:54:53;8.57;;;1.77;;
23072;SDS011;67971;51.046;3.732;2023-04-03T13:57:22;3.90;;;1.45;;
23072;SDS011;67971;51.046;3.732;2023-04-03T13:59:48;3.58;;;1.70;;
23072;SDS011;67971;51.046;3.732;2023-04-03T14:02:17;4.13;;;1.63;;
23072;SDS011;67971;51.046;3.732;2023-04-03T14:04:52;2.00;;;1.50;;
23072;SDS011;67971;51.046;3.732;2023-04-03T14:07:23;3.10;;;1.75;;
23072;SDS011;67971;51.046;3.732;2023-04-03T14:09:50;4.25;;;1.40;;
23072;SDS011;67971;51.046;3.732;2023-04-03T14:12:27;3.03;;;1.50;;
23072;SDS011;67971;51.046;3.732;2023-04-03T14:14:59;2.97;;;1.55;;
23072;SDS011;67971;51.046;3.732;2023-04-03T14:17:26;3.90;;;1.90;;
23072;SDS011;67971;51.046;3.732;2023-04-03T14:19:53;3.63;;;1.73;;
23072;SDS011;67971;51.046;3.732;2023-04-03T14:22:31;4.47;;;1.90;;
23072;SDS011;67971;51.046;3.732;2023-04-03T14:24:58;4.57;;;1.73;;
23072;SDS011;67971;51.046;3.732;2023-04-03T14:29:53;3.60;;;1.73;;
23072;SDS011;67971;51.046;3.732;2023-04-03T14:32:21;5.63;;;1.80;;
23072;SDS011;67971;51.046;3.732;2023-04-03T14:34:48;4.68;;;1.52;;
23072;SDS011;67971;51.046;3.732;2023-04-03T14:37:16;4.18;;;1.48;;
23072;SDS011;67971;51.046;3.732;2023-04-03T14:39:45;5.88;;;1.95;;
23072;SDS011;67971;51.046;3.732;2023-04-03T14:42:19;3.13;;;1.83;;
23072;SDS011;67971;51.046;3.732;2023-04-03T14:44:47;3.70;;;1.80;;
23072;SDS011;67971;51.046;3.732;2023-04-03T14:47:14;3.08;;;1.75;;
23072;SDS011;67971;51.046;3.732;2023-04-03T14:49:43;3.60;;;1.60;;
23072;SDS011;67971;51.046;3.732;2023-04-03T14:52:16;3.60;;;1.30;;
23072;SDS011;67971;51.046;3.732;2023-04-03T14:54:53;1.88;;;1.42;;
23072;SDS011;67971;51.046;3.732;2023-04-03T14:57:19;5.65;;;1.70;;
23072;SDS011;67971;51.046;3.732;2023-04-03T14:59:49;4.97;;;1.85;;
23072;SDS011;67971;51.046;3.732;2023-04-03T15:02:31;2.08;;;1.30;;
23072;SDS011;67971;51.046;3.732;2023-04-03T15:05:03;5.30;;;1.77;;
23072;SDS011;67971;51.046;3.732;2023-04-03T15:07:32;3.60;;;1.73;;
23072;SDS011;67971;51.046;3.732;2023-04-03T15:10:23;3.55;;;1.52;;
23072;SDS011;67971;51.046;3.732;2023-04-03T15:12:48;4.43;;;1.88;;
23072;SDS011;67971;51.046;3.732;2023-04-03T15:15:16;6.13;;;1.95;;
23072;SDS011;67971;51.046;3.732;2023-04-03T15:17:43;3.50;;;1.67;;
23072;SDS011;67971;51.046;3.732;2023-04-03T15:20:11;4.22;;;1.60;;
23072;SDS011;67971;51.046;3.732;2023-04-03T15:22:44;2.83;;;1.38;;
23072;SDS011;67971;51.046;3.732;2023-04-03T15:25:11;3.95;;;1.77;;
23072;SDS011;67971;51.046;3.732;2023-04-03T15:27:37;2.78;;;1.60;;
23072;SDS011;67971;51.046;3.732;2023-04-03T15:30:04;2.47;;;1.50;;
23072;SDS011;67971;51.046;3.732;2023-04-03T15:32:31;3.42;;;1.75;;
23072;SDS011;67971;51.046;3.732;2023-04-03T15:34:56;2.28;;;1.80;;
23072;SDS011;67971;51.046;3.732;2023-04-03T15:37:23;5.18;;;1.83;;
23072;SDS011;67971;51.046;3.732;2023-04-03T15:39:48;3.55;;;1.60;;
23072;SDS011;67971;51.046;3.732;2023-04-03T15:42:14;5.35;;;2.05;;
23072;SDS011;67971;51.046;3.732;2023-04-03T15:44:40;4.78;;;1.77;;
23072;SDS011;67971;51.046;3.732;2023-04-03T15:47:05;2.70;;;1.90;;
23072;SDS011;67971;51.046;3.732;2023-04-03T15:49:32;4.43;;;1.50;;
23072;SDS011;67971;51.046;3.732;2023-04-03T15:51:59;3.03;;;1.70;;
23072;SDS011;67971;51.046;3.732;2023-04-03T15:54:24;3.20;;;1.70;;
23072;SDS011;67971;51.046;3.732;2023-04-03T15:56:51;4.20;;;1.60;;
23072;SDS011;67971;51.046;3.732;2023-04-03T15:59:17;2.38;;;1.48;;
23072;SDS011;67971;51.046;3.732;2023-04-03T16:01:43;2.10;;;1.55;;
23072;SDS011;67971;51.046;3.732;2023-04-03T16:04:10;3.22;;;1.48;;
23072;SDS011;67971;51.046;3.732;2023-04-03T16:06:36;5.60;;;1.50;;
23072;SDS011;67971;51.046;3.732;2023-04-03T16:09:03;2.75;;;1.83;;
23072;SDS011;67971;51.046;3.732;2023-04-03T16:11:29;1.60;;;1.17;;
23072;SDS011;67971;51.046;3.732;2023-04-03T16:13:56;3.08;;;1.40;;
23072;SDS011;67971;51.046;3.732;2023-04-03T16:16:22;3.65;;;1.35;;
23072;SDS011;67971;51.046;3.732;2023-04-03T16:18:49;6.25;;;1.58;;
23072;SDS011;67971;51.046;3.732;2023-04-03T16:21:16;5.82;;;2.58;;
23072;SDS011;67971;51.046;3.732;2023-04-03T16:23:42;3.63;;;1.83;;
23072;SDS011;67971;51.046;3.732;2023-04-03T16:26:09;2.83;;;1.92;;
23072;SDS011;67971;51.046;3.732;2023-04-03T16:28:35;3.22;;;1.55;;
23072;SDS011;67971;51.046;3.732;2023-04-03T16:31:01;2.58;;;1.63;;
23072;SDS011;67971;51.046;3.732;2023-04-03T16:33:27;3.35;;;1.90;;